Time;durP1;ratioP1;P1;durP2;ratioP2;P2;SDS_P1;SDS_P2;PMS_P1;PMS_P2;Temp;Humidity;BMP_temperature;BMP_pressure;BME280_temperature;BME280_humidity;BME280_pressure;Samples;Min_cycle;Max_cycle;Signal;HPM_P1;HPM_P2
2022/10/22 00:00:11;;;;;;;36.47;24.48;;;11.00;99.90;;;;;;5070771;28;20044;-55
2022/10/22 00:02:36;;;;;;;31.58;24.20;;;11.00;99.90;;;;;;5073081;28;20082;-53
2022/10/22 00:05:02;;;;;;;41.60;25.75;;;11.10;99.90;;;;;;5074908;28;20024;-52
2022/10/22 00:07:28;;;;;;;36.58;24.40;;;11.00;99.90;;;;;;5090030;28;20476;-53
2022/10/22 00:09:54;;;;;;;37.00;24.90;;;11.00;99.90;;;;;;5074511;28;20049;-55
2022/10/22 00:12:20;;;;;;;41.58;25.35;;;11.10;99.90;;;;;;5074507;28;20025;-55
2022/10/22 00:14:46;;;;;;;36.33;24.65;;;11.10;99.90;;;;;;5074410;28;20031;-51
2022/10/22 00:17:12;;;;;;;37.38;25.83;;;11.10;99.90;;;;;;5074508;28;20035;-55
2022/10/22 00:19:38;;;;;;;33.90;25.80;;;11.10;99.90;;;;;;5074486;28;20029;-55
2022/10/22 00:22:04;;;;;;;34.30;24.45;;;11.00;99.90;;;;;;5074426;28;20029;-56
2022/10/22 00:24:32;;;;;;;36.70;24.58;;;11.00;99.90;;;;;;5074388;28;20023;-56
2022/10/22 00:26:57;;;;;;;37.80;26.05;;;11.00;99.90;;;;;;5074416;28;20029;-54
2022/10/22 00:29:23;;;;;;;34.72;24.75;;;10.90;99.90;;;;;;5074245;28;20580;-54
2022/10/22 00:31:49;;;;;;;37.78;26.80;;;10.90;99.90;;;;;;5074290;28;20033;-53
2022/10/22 00:34:20;;;;;;;46.47;25.83;;;10.80;99.90;;;;;;5073981;28;20033;-53
2022/10/22 00:36:46;;;;;;;40.10;24.70;;;10.70;99.90;;;;;;5074193;28;20016;-53
2022/10/22 00:39:15;;;;;;;42.83;26.23;;;10.60;99.90;;;;;;5074055;28;20025;-52
2022/10/22 00:41:44;;;;;;;36.80;25.20;;;10.50;99.90;;;;;;5074013;28;20075;-52
2022/10/22 00:44:48;;;;;;;42.47;25.50;;;10.40;99.90;;;;;;5089324;28;20128;-53
2022/10/22 00:47:15;;;;;;;43.45;26.42;;;10.40;99.90;;;;;;5073744;28;20021;-54
2022/10/22 00:49:42;;;;;;;37.45;27.20;;;10.30;99.90;;;;;;5074015;28;20028;-52
2022/10/22 00:52:08;;;;;;;33.53;25.45;;;10.20;99.90;;;;;;5073842;28;20016;-52
2022/10/22 00:54:34;;;;;;;39.95;27.63;;;10.20;99.90;;;;;;5073875;28;20029;-52
2022/10/22 00:57:00;;;;;;;43.35;27.90;;;10.10;99.90;;;;;;5073868;28;20129;-51
2022/10/22 00:59:27;;;;;;;39.13;26.20;;;10.10;99.90;;;;;;5073638;28;20025;-54
2022/10/22 01:01:53;;;;;;;40.00;26.63;;;10.00;99.90;;;;;;5073874;28;20021;-51
2022/10/22 01:04:19;;;;;;;34.85;24.63;;;10.00;99.90;;;;;;5073745;28;20036;-52
2022/10/22 01:06:46;;;;;;;36.42;25.38;;;9.90;99.90;;;;;;5073488;28;20464;-52
2022/10/22 01:09:23;;;;;;;38.53;24.95;;;9.80;99.90;;;;;;5073355;28;20048;-54
2022/10/22 01:11:58;;;;;;;50.40;27.50;;;9.60;99.90;;;;;;5073805;28;20031;-52
2022/10/22 01:14:39;;;;;;;41.35;26.73;;;9.50;99.90;;;;;;5072950;28;20060;-53
2022/10/22 01:17:27;;;;;;;46.47;26.15;;;9.40;99.90;;;;;;5089008;28;20028;-53
2022/10/22 01:20:08;;;;;;;46.75;27.83;;;9.40;99.90;;;;;;5073420;28;20017;-54
2022/10/22 01:22:44;;;;;;;41.38;27.58;;;9.40;99.90;;;;;;5073486;28;20021;-52
2022/10/22 01:25:18;;;;;;;32.15;24.77;;;9.30;99.90;;;;;;5073241;28;20403;-53
2022/10/22 01:28:01;;;;;;;41.03;26.23;;;9.20;99.90;;;;;;5073218;28;20024;-52
2022/10/22 01:30:27;;;;;;;37.17;26.50;;;9.20;99.90;;;;;;5073111;28;20119;-51
2022/10/22 01:32:59;;;;;;;50.58;26.90;;;9.30;99.90;;;;;;5072943;28;20115;-53
2022/10/22 01:35:32;;;;;;;42.87;26.80;;;9.20;99.90;;;;;;5072998;28;20120;-52
2022/10/22 01:38:02;;;;;;;44.97;26.67;;;9.30;99.90;;;;;;5088547;28;20480;-54
2022/10/22 01:40:29;;;;;;;40.60;26.20;;;9.30;99.90;;;;;;5072870;28;20672;-54
2022/10/22 01:42:59;;;;;;;36.92;26.35;;;9.30;99.90;;;;;;5072944;28;20106;-55
2022/10/22 01:45:26;;;;;;;37.92;25.10;;;9.30;99.90;;;;;;5091498;28;20499;-51
2022/10/22 01:47:51;;;;;;;35.95;27.08;;;9.30;99.90;;;;;;5093043;28;20028;-52
2022/10/22 01:50:32;;;;;;;39.83;26.23;;;9.30;99.90;;;;;;5092762;28;20024;-51
2022/10/22 01:53:00;;;;;;;36.40;25.27;;;9.30;99.90;;;;;;5091648;28;20066;-53
2022/10/22 01:55:56;;;;;;;39.55;27.77;;;9.30;99.90;;;;;;5092928;28;20016;-55
2022/10/22 01:58:31;;;;;;;32.95;25.95;;;9.30;99.90;;;;;;5092721;28;20099;-53
2022/10/22 02:01:08;;;;;;;40.13;27.60;;;9.30;99.90;;;;;;5092879;28;20485;-53
2022/10/22 02:04:09;;;;;;;38.85;28.88;;;9.30;99.90;;;;;;5092789;28;20372;-52
2022/10/22 02:06:37;;;;;;;41.45;26.50;;;9.20;99.90;;;;;;5092269;28;20043;-51
2022/10/22 02:09:04;;;;;;;41.65;28.15;;;9.20;99.90;;;;;;5092347;28;20101;-56
2022/10/22 02:11:30;;;;;;;46.05;27.92;;;9.10;99.90;;;;;;5092518;28;20429;-54
2022/10/22 02:13:58;;;;;;;43.90;28.13;;;9.10;99.90;;;;;;5092513;28;20024;-52
2022/10/22 02:16:31;;;;;;;43.00;28.08;;;9.00;99.90;;;;;;5092388;28;20032;-52
2022/10/22 02:18:59;;;;;;;44.80;25.98;;;9.00;99.90;;;;;;5092480;28;20016;-50
2022/10/22 02:21:26;;;;;;;47.22;28.23;;;9.00;99.90;;;;;;5092191;28;20028;-53
2022/10/22 02:23:52;;;;;;;42.08;26.95;;;8.90;99.90;;;;;;5091981;28;20016;-53
2022/10/22 02:26:33;;;;;;;39.75;25.52;;;9.00;99.90;;;;;;5091958;28;20031;-51
2022/10/22 02:29:08;;;;;;;37.03;25.90;;;8.90;99.90;;;;;;5092296;28;20024;-53
2022/10/22 02:31:37;;;;;;;40.08;25.85;;;9.00;99.90;;;;;;5092358;28;20028;-52
2022/10/22 02:34:09;;;;;;;34.55;25.63;;;9.00;99.90;;;;;;5091955;28;20035;-55
2022/10/22 02:36:37;;;;;;;37.75;27.08;;;9.00;99.90;;;;;;5091496;28;20012;-53
2022/10/22 02:39:03;;;;;;;35.03;26.08;;;9.10;99.90;;;;;;5091245;28;20024;-52
2022/10/22 02:41:29;;;;;;;37.13;28.30;;;9.20;99.90;;;;;;5091276;28;20077;-52
2022/10/22 02:43:55;;;;;;;36.40;25.73;;;9.30;99.90;;;;;;5091729;28;20036;-55
2022/10/22 02:46:21;;;;;;;33.97;25.92;;;9.30;99.90;;;;;;5090929;28;20028;-55
2022/10/22 02:48:47;;;;;;;42.53;25.33;;;9.40;99.90;;;;;;5090807;28;20024;-52
2022/10/22 02:51:13;;;;;;;45.72;27.17;;;9.40;99.90;;;;;;5091593;28;20031;-52
2022/10/22 02:53:39;;;;;;;36.85;26.83;;;9.40;99.90;;;;;;5091781;28;20097;-51
2022/10/22 02:56:05;;;;;;;41.55;29.25;;;9.40;99.90;;;;;;5091709;28;20115;-52
2022/10/22 02:58:30;;;;;;;38.97;28.38;;;9.50;99.90;;;;;;5091810;28;20154;-55
2022/10/22 03:00:56;;;;;;;37.17;27.60;;;9.60;99.90;;;;;;5091605;28;20095;-52
2022/10/22 03:03:22;;;;;;;36.78;25.65;;;9.70;99.90;;;;;;5091424;28;20695;-54
2022/10/22 03:05:50;;;;;;;44.17;26.55;;;9.70;99.90;;;;;;5091510;28;20115;-51
2022/10/22 03:08:16;;;;;;;35.55;26.95;;;9.80;99.90;;;;;;5091140;28;20052;-52
2022/10/22 03:10:42;;;;;;;44.65;26.83;;;9.90;99.90;;;;;;5091691;28;20027;-53
2022/10/22 03:13:08;;;;;;;38.03;26.05;;;10.00;99.90;;;;;;5091608;28;20099;-52
2022/10/22 03:15:33;;;;;;;39.97;27.75;;;10.00;99.90;;;;;;5091634;28;20729;-51
2022/10/22 03:17:59;;;;;;;43.00;24.80;;;10.00;99.90;;;;;;5091579;28;20376;-53
2022/10/22 03:20:25;;;;;;;36.47;24.73;;;10.00;99.90;;;;;;5091369;28;20024;-53
2022/10/22 03:22:50;;;;;;;32.35;24.38;;;10.10;99.90;;;;;;5091530;28;20359;-53
2022/10/22 03:25:20;;;;;;;35.58;24.38;;;10.10;99.90;;;;;;5091374;28;20028;-52
2022/10/22 03:27:48;;;;;;;28.40;21.55;;;10.20;99.90;;;;;;5091248;28;20028;-52
2022/10/22 03:30:13;;;;;;;32.63;23.50;;;10.30;99.90;;;;;;5091116;28;20013;-53
2022/10/22 03:32:39;;;;;;;28.33;22.25;;;10.20;99.90;;;;;;5091291;28;20024;-53
2022/10/22 03:35:05;;;;;;;43.08;22.65;;;10.20;99.90;;;;;;5091396;28;20348;-53
2022/10/22 03:37:32;;;;;;;31.90;22.77;;;10.20;99.90;;;;;;5095272;28;20036;-52
2022/10/22 03:39:59;;;;;;;31.52;22.45;;;10.20;99.90;;;;;;5094072;28;20491;-53
2022/10/22 03:42:25;;;;;;;39.60;24.90;;;10.20;99.90;;;;;;5095404;28;20024;-55
2022/10/22 03:44:51;;;;;;;36.20;25.90;;;10.10;99.90;;;;;;5095394;28;20036;-52
2022/10/22 03:47:17;;;;;;;36.42;25.92;;;10.10;99.90;;;;;;5095085;28;20050;-55
2022/10/22 03:49:42;;;;;;;44.15;25.27;;;10.00;99.90;;;;;;5095324;28;20532;-56
2022/10/22 03:52:13;;;;;;;39.78;28.00;;;10.10;99.90;;;;;;5095088;28;20026;-52
2022/10/22 03:54:39;;;;;;;49.03;29.60;;;10.10;99.90;;;;;;5095240;28;20124;-52
2022/10/22 03:57:05;;;;;;;38.63;25.92;;;10.10;99.90;;;;;;5094905;28;20012;-52
2022/10/22 03:59:39;;;;;;;41.78;24.65;;;10.10;99.90;;;;;;5095307;28;20028;-51
2022/10/22 04:02:06;;;;;;;42.58;26.35;;;10.10;99.90;;;;;;5094826;28;20024;-50
2022/10/22 04:04:32;;;;;;;31.98;23.95;;;10.10;99.90;;;;;;5095000;28;20140;-52
2022/10/22 04:06:57;;;;;;;31.40;25.05;;;10.20;99.90;;;;;;5094962;28;20020;-51
2022/10/22 04:09:23;;;;;;;35.65;24.02;;;10.30;99.90;;;;;;5091020;28;20050;-50
2022/10/22 04:11:49;;;;;;;31.63;23.60;;;10.40;99.90;;;;;;5094902;28;20023;-51
2022/10/22 04:14:14;;;;;;;41.03;26.98;;;10.40;99.90;;;;;;5094495;28;20024;-50
2022/10/22 04:16:40;;;;;;;37.50;26.33;;;10.40;99.90;;;;;;5094911;28;20483;-51
2022/10/22 04:19:07;;;;;;;36.00;24.85;;;10.40;99.90;;;;;;5094555;28;20022;-52
2022/10/22 04:21:32;;;;;;;38.17;26.85;;;10.40;99.90;;;;;;5094641;28;20119;-53
2022/10/22 04:23:58;;;;;;;36.13;24.42;;;10.50;99.90;;;;;;5094745;28;20048;-50
2022/10/22 04:26:24;;;;;;;33.30;24.55;;;10.50;99.90;;;;;;5094448;28;20028;-51
2022/10/22 04:28:51;;;;;;;34.63;24.33;;;10.60;99.90;;;;;;5094164;28;20024;-51
2022/10/22 04:31:19;;;;;;;39.17;23.80;;;10.70;99.90;;;;;;5094262;28;20085;-54
2022/10/22 04:33:45;;;;;;;33.28;24.42;;;10.70;99.90;;;;;;5094475;28;20028;-51
2022/10/22 04:36:13;;;;;;;41.78;23.65;;;10.70;99.90;;;;;;5094331;28;20027;-52
2022/10/22 04:38:40;;;;;;;33.20;24.80;;;10.80;99.90;;;;;;5094375;28;20052;-53
2022/10/22 04:41:17;;;;;;;39.50;25.98;;;10.80;99.90;;;;;;5094224;28;20024;-54
2022/10/22 04:43:44;;;;;;;31.27;23.23;;;10.80;99.90;;;;;;5094342;28;20024;-51
2022/10/22 04:46:11;;;;;;;33.72;22.45;;;10.90;99.90;;;;;;5094088;28;20028;-54
2022/10/22 04:48:39;;;;;;;37.80;22.65;;;11.00;99.90;;;;;;5093513;28;20023;-52
2022/10/22 04:51:07;;;;;;;33.63;22.75;;;11.00;99.90;;;;;;5094083;28;20077;-51
2022/10/22 04:53:36;;;;;;;30.98;21.48;;;11.10;99.90;;;;;;5094076;28;20027;-52
2022/10/22 04:56:19;;;;;;;35.80;22.70;;;11.10;99.90;;;;;;5094078;28;20140;-54
2022/10/22 04:58:49;;;;;;;27.83;21.35;;;11.10;99.90;;;;;;5094000;28;20383;-55
2022/10/22 05:01:21;;;;;;;30.70;20.88;;;11.00;99.90;;;;;;5093739;28;20459;-54
2022/10/22 05:03:48;;;;;;;31.35;22.52;;;11.10;99.90;;;;;;5094136;28;20035;-52
2022/10/22 05:06:15;;;;;;;33.22;23.73;;;11.00;99.90;;;;;;5093618;28;20378;-54
2022/10/22 05:08:42;;;;;;;38.95;24.98;;;11.00;99.90;;;;;;5093572;28;20055;-51
2022/10/22 05:11:33;;;;;;;30.35;20.58;;;11.00;99.90;;;;;;5093663;28;20464;-55
2022/10/22 05:14:00;;;;;;;25.15;18.75;;;11.20;99.90;;;;;;5085101;28;20032;-54
2022/10/22 05:16:28;;;;;;;30.92;20.33;;;11.20;99.90;;;;;;5093531;28;20016;-52
2022/10/22 05:18:53;;;;;;;31.50;21.33;;;11.20;99.90;;;;;;5093630;28;20028;-56
2022/10/22 05:21:20;;;;;;;34.80;18.58;;;11.30;99.90;;;;;;5093428;28;20023;-53
2022/10/22 05:23:47;;;;;;;23.75;18.42;;;11.40;99.90;;;;;;5093510;28;20058;-56
2022/10/22 05:26:14;;;;;;;26.35;18.40;;;11.40;99.90;;;;;;5093480;28;20024;-53
2022/10/22 05:28:40;;;;;;;23.02;17.63;;;11.40;99.90;;;;;;5093507;28;20118;-54
2022/10/22 05:31:09;;;;;;;30.50;20.30;;;11.40;99.90;;;;;;5093317;28;20371;-54
2022/10/22 05:33:34;;;;;;;25.92;19.35;;;11.50;99.90;;;;;;5093131;28;20032;-53
2022/10/22 05:36:02;;;;;;;25.92;17.42;;;11.50;99.90;;;;;;5093475;28;20116;-54
2022/10/22 05:38:27;;;;;;;24.60;18.42;;;11.60;99.90;;;;;;5093095;28;20031;-54
2022/10/22 05:41:01;;;;;;;25.90;17.30;;;11.60;99.90;;;;;;5093423;28;20356;-53
2022/10/22 05:43:27;;;;;;;22.60;15.98;;;11.70;99.90;;;;;;5091769;28;20504;-53
2022/10/22 05:45:53;;;;;;;19.60;16.08;;;11.80;99.90;;;;;;5093145;28;20040;-51
2022/10/22 05:48:19;;;;;;;21.42;15.95;;;11.90;99.90;;;;;;5092946;28;20359;-52
2022/10/22 05:50:49;;;;;;;23.00;16.20;;;12.00;99.90;;;;;;5092913;28;20043;-55
2022/10/22 05:53:16;;;;;;;17.92;15.27;;;12.00;99.90;;;;;;5092748;28;20028;-55
2022/10/22 05:55:41;;;;;;;21.85;14.32;;;12.10;99.90;;;;;;5093107;28;20024;-53
2022/10/22 05:58:08;;;;;;;18.25;14.85;;;12.10;99.90;;;;;;5091335;28;20031;-53
2022/10/22 06:00:33;;;;;;;18.58;12.82;;;12.10;99.90;;;;;;5091697;28;20035;-52
2022/10/22 06:02:59;;;;;;;21.35;14.98;;;12.10;99.90;;;;;;5092752;28;20016;-53
2022/10/22 06:05:25;;;;;;;49.90;28.83;;;12.10;99.90;;;;;;5092793;28;20024;-53
2022/10/22 06:07:51;;;;;;;64.07;36.50;;;12.00;99.90;;;;;;5092652;28;20044;-55
2022/10/22 06:10:19;;;;;;;113.97;48.72;;;12.00;99.90;;;;;;5092482;28;20419;-55
2022/10/22 06:12:48;;;;;;;101.40;46.25;;;12.00;99.90;;;;;;5092439;28;20016;-52
2022/10/22 06:15:16;;;;;;;47.25;25.38;;;12.00;99.90;;;;;;5092519;28;20039;-55
2022/10/22 06:17:46;;;;;;;49.95;32.03;;;12.00;99.90;;;;;;5092418;28;20463;-55
2022/10/22 06:20:13;;;;;;;21.48;15.10;;;12.00;99.90;;;;;;5092273;28;20459;-53
2022/10/22 06:22:39;;;;;;;22.77;16.30;;;12.10;99.90;;;;;;5092420;28;20020;-53
2022/10/22 06:25:07;;;;;;;47.67;29.80;;;12.20;99.90;;;;;;5092272;28;20035;-56
2022/10/22 06:27:33;;;;;;;20.58;15.88;;;12.10;99.90;;;;;;5092185;28;20031;-55
2022/10/22 06:29:59;;;;;;;22.80;13.05;;;12.20;99.90;;;;;;5092296;28;20024;-53
2022/10/22 06:32:24;;;;;;;29.65;19.58;;;12.20;99.90;;;;;;5091966;28;20514;-52
2022/10/22 06:34:50;;;;;;;16.65;10.95;;;12.20;99.90;;;;;;5090793;28;20027;-51
2022/10/22 06:37:16;;;;;;;17.08;13.10;;;12.30;99.90;;;;;;5092044;28;20022;-52
2022/10/22 06:39:42;;;;;;;15.77;13.10;;;12.40;99.90;;;;;;5092230;28;20024;-52
2022/10/22 06:42:08;;;;;;;29.20;19.70;;;12.30;99.90;;;;;;5091807;28;20355;-53
2022/10/22 06:44:34;;;;;;;35.92;26.70;;;12.30;99.90;;;;;;5092088;28;20111;-54
2022/10/22 06:46:59;;;;;;;108.10;50.03;;;12.30;99.90;;;;;;5092145;28;20479;-52
2022/10/22 06:49:25;;;;;;;21.63;12.13;;;12.30;99.90;;;;;;5091762;28;20035;-54
2022/10/22 06:51:52;;;;;;;15.18;11.70;;;12.40;99.90;;;;;;5091907;28;20028;-53
2022/10/22 06:54:18;;;;;;;43.10;26.35;;;12.50;99.90;;;;;;5091829;28;20352;-56
2022/10/22 06:56:44;;;;;;;37.67;21.40;;;12.40;99.90;;;;;;5091732;28;20032;-53
2022/10/22 06:59:09;;;;;;;115.63;46.58;;;12.40;99.90;;;;;;5091775;28;20027;-54
2022/10/22 07:01:35;;;;;;;106.13;46.13;;;12.40;99.90;;;;;;5091472;28;20367;-55
2022/10/22 07:04:02;;;;;;;44.22;24.90;;;12.40;99.90;;;;;;5091058;28;20116;-56
2022/10/22 07:06:28;;;;;;;18.63;13.13;;;12.40;99.90;;;;;;5088987;28;20467;-52
2022/10/22 07:08:56;;;;;;;20.00;14.02;;;12.40;99.90;;;;;;5089763;28;20040;-52
2022/10/22 07:11:24;;;;;;;14.50;10.07;;;12.40;99.90;;;;;;5091265;28;20395;-53
2022/10/22 07:13:50;;;;;;;47.65;23.00;;;12.60;99.90;;;;;;5091613;28;20402;-53
2022/10/22 07:16:17;;;;;;;18.05;7.75;;;12.50;99.90;;;;;;5091098;28;20073;-54
2022/10/22 07:18:43;;;;;;;10.35;7.10;;;12.60;99.90;;;;;;5091526;28;20367;-52
2022/10/22 07:21:09;;;;;;;9.25;8.13;;;12.70;99.90;;;;;;5091518;28;20024;-56
2022/10/22 07:23:35;;;;;;;6.88;6.18;;;12.80;99.90;;;;;;5091492;28;20044;-54
2022/10/22 07:26:02;;;;;;;7.07;6.38;;;12.90;99.90;;;;;;5091483;28;20038;-51
2022/10/22 07:28:28;;;;;;;7.13;5.88;;;12.90;99.90;;;;;;5091576;28;20511;-54
2022/10/22 07:30:54;;;;;;;8.18;6.25;;;12.90;99.90;;;;;;5091429;28;20036;-51
2022/10/22 07:33:19;;;;;;;12.65;6.85;;;12.90;99.90;;;;;;5091162;28;20036;-53
2022/10/22 07:35:45;;;;;;;10.98;6.30;;;12.90;99.90;;;;;;5091182;28;20016;-55
2022/10/22 07:38:11;;;;;;;8.00;6.22;;;12.90;99.90;;;;;;5091221;28;20048;-56
2022/10/22 07:40:36;;;;;;;11.05;6.90;;;12.90;99.90;;;;;;5091327;28;20024;-52
2022/10/22 07:43:03;;;;;;;13.13;7.72;;;12.90;99.90;;;;;;5091442;28;20028;-53
2022/10/22 07:45:29;;;;;;;15.35;7.40;;;13.00;99.90;;;;;;5091315;28;20395;-54
2022/10/22 07:47:54;;;;;;;9.90;5.95;;;13.00;99.90;;;;;;5091387;28;20024;-51
2022/10/22 07:50:20;;;;;;;7.00;4.90;;;12.90;99.90;;;;;;5091283;28;20035;-53
2022/10/22 07:52:46;;;;;;;9.93;5.20;;;12.90;99.90;;;;;;5091031;28;20026;-52
2022/10/22 07:55:12;;;;;;;14.77;10.18;;;12.90;99.90;;;;;;5090328;28;20380;-52
2022/10/22 07:57:41;;;;;;;11.25;7.10;;;12.90;99.90;;;;;;5088865;28;20028;-52
2022/10/22 08:00:08;;;;;;;9.40;6.68;;;12.90;99.90;;;;;;5090687;28;20398;-53
2022/10/22 08:02:34;;;;;;;8.52;6.65;;;12.90;99.90;;;;;;5090339;28;20024;-53
2022/10/22 08:04:59;;;;;;;26.83;17.90;;;12.90;99.90;;;;;;5090140;28;20468;-51
2022/10/22 08:07:25;;;;;;;13.55;9.85;;;13.10;99.90;;;;;;5090417;28;20032;-51
2022/10/22 08:09:51;;;;;;;8.77;7.57;;;13.20;99.90;;;;;;5090912;28;20032;-54
2022/10/22 08:12:17;;;;;;;5.75;4.63;;;13.20;99.90;;;;;;5094718;28;20015;-52
2022/10/22 08:14:43;;;;;;;6.55;3.85;;;13.30;99.90;;;;;;5111454;28;20666;-51
2022/10/22 08:17:08;;;;;;;4.72;4.20;;;13.40;99.90;;;;;;5111035;28;20129;-54
2022/10/22 08:19:34;;;;;;;4.95;4.07;;;13.40;99.90;;;;;;5111428;28;20020;-52
2022/10/22 08:22:00;;;;;;;4.28;3.88;;;13.50;99.90;;;;;;5111230;28;20016;-52
2022/10/22 08:24:26;;;;;;;5.28;3.45;;;13.50;99.90;;;;;;5114422;28;20042;-53
2022/10/22 08:26:55;;;;;;;6.78;5.30;;;13.50;99.90;;;;;;5114970;28;20503;-51
2022/10/22 08:29:25;;;;;;;18.10;15.60;;;13.50;99.90;;;;;;5114709;28;20396;-53
2022/10/22 08:31:51;;;;;;;10.50;5.55;;;13.60;99.90;;;;;;5115037;28;20139;-52
2022/10/22 08:34:17;;;;;;;8.38;7.57;;;13.60;99.90;;;;;;5113681;27;20114;-51
2022/10/22 08:36:43;;;;;;;4.57;4.18;;;13.60;99.90;;;;;;5113391;28;20107;-55
2022/10/22 08:39:08;;;;;;;8.65;5.70;;;13.50;99.90;;;;;;5113237;28;20024;-55
2022/10/22 08:41:44;;;;;;;4.95;4.45;;;13.50;99.90;;;;;;5114471;28;20064;-52
2022/10/22 08:44:22;;;;;;;6.55;4.80;;;13.40;99.90;;;;;;5114271;28;20023;-52
2022/10/22 08:47:03;;;;;;;5.95;4.93;;;13.40;99.90;;;;;;5114626;28;20115;-52
2022/10/22 08:49:37;;;;;;;5.65;4.68;;;13.40;99.90;;;;;;5114172;28;20114;-53
2022/10/22 08:52:04;;;;;;;7.53;4.32;;;13.30;99.90;;;;;;5114637;28;20059;-56
2022/10/22 08:54:51;;;;;;;5.10;4.32;;;13.30;99.90;;;;;;5114154;28;20098;-54
2022/10/22 08:57:31;;;;;;;8.65;6.32;;;13.30;99.90;;;;;;5114276;28;20026;-52
2022/10/22 09:00:35;;;;;;;10.85;6.90;;;13.40;99.90;;;;;;5114428;28;20354;-56
2022/10/22 09:03:18;;;;;;;24.08;14.52;;;13.50;99.90;;;;;;5114501;28;20407;-53
2022/10/22 09:05:58;;;;;;;86.30;37.42;;;13.50;99.90;;;;;;5114253;28;20491;-51
2022/10/22 09:08:24;;;;;;;7.70;4.45;;;13.50;99.90;;;;;;5113752;28;20097;-53
2022/10/22 09:11:05;;;;;;;4.65;4.25;;;13.60;99.90;;;;;;5114178;28;20028;-52
2022/10/22 09:13:31;;;;;;;10.57;5.93;;;13.60;99.90;;;;;;5113873;28;20031;-54
2022/10/22 09:16:09;;;;;;;5.35;4.82;;;13.60;99.90;;;;;;5114121;28;20046;-52
2022/10/22 09:18:42;;;;;;;8.35;5.28;;;13.70;99.90;;;;;;5113749;28;20053;-52
2022/10/22 09:21:27;;;;;;;24.92;15.93;;;13.70;99.90;;;;;;5112500;28;20359;-51
2022/10/22 09:24:03;;;;;;;7.97;4.50;;;13.70;99.90;;;;;;5113729;28;20442;-51
2022/10/22 09:26:32;;;;;;;2.97;2.67;;;13.70;99.90;;;;;;5113467;28;20413;-53
2022/10/22 09:28:59;;;;;;;5.40;3.15;;;13.80;99.90;;;;;;5112920;28;20043;-52
2022/10/22 09:31:26;;;;;;;3.75;3.40;;;13.80;99.90;;;;;;5112288;27;20534;-53
2022/10/22 09:33:52;;;;;;;3.15;2.85;;;13.80;99.90;;;;;;5112123;27;20034;-51
2022/10/22 09:36:21;;;;;;;2.40;2.20;;;13.80;99.90;;;;;;5112428;28;20319;-52
2022/10/22 09:38:49;;;;;;;3.25;2.83;;;13.80;99.90;;;;;;5112040;28;20019;-55
2022/10/22 09:41:16;;;;;;;4.15;2.08;;;13.80;99.90;;;;;;5112265;28;20076;-53
2022/10/22 09:43:41;;;;;;;2.30;2.10;;;13.80;99.90;;;;;;5112941;28;20046;-50
2022/10/22 09:46:16;;;;;;;2.25;2.05;;;13.80;99.90;;;;;;5112469;28;20024;-53
2022/10/22 09:48:46;;;;;;;3.88;2.60;;;13.80;99.90;;;;;;5112140;28;20031;-52
2022/10/22 09:51:15;;;;;;;2.70;1.65;;;13.80;99.90;;;;;;5111890;28;20076;-51
2022/10/22 09:53:44;;;;;;;1.67;1.35;;;13.80;99.90;;;;;;5111576;28;20132;-52
2022/10/22 09:56:39;;;;;;;1.63;1.52;;;13.80;99.90;;;;;;5111717;28;20027;-52
2022/10/22 09:59:12;;;;;;;2.28;1.50;;;13.80;99.90;;;;;;5112022;28;20020;-51
2022/10/22 10:01:39;;;;;;;4.70;1.90;;;13.80;99.90;;;;;;5111865;28;20012;-55
2022/10/22 10:04:11;;;;;;;1.88;1.77;;;13.80;99.90;;;;;;5110330;28;20031;-52
2022/10/22 10:06:40;;;;;;;1.70;1.60;;;13.80;99.90;;;;;;5111825;28;20035;-53
2022/10/22 10:09:18;;;;;;;3.50;1.52;;;13.90;99.90;;;;;;5111310;28;20138;-51
2022/10/22 10:12:02;;;;;;;17.48;7.30;;;14.10;99.90;;;;;;5111645;28;20157;-56
2022/10/22 10:14:45;;;;;;;3.58;2.03;;;14.20;99.90;;;;;;5111432;28;20345;-51
2022/10/22 10:17:32;;;;;;;1.73;1.33;;;14.30;99.90;;;;;;5111314;28;20464;-53
2022/10/22 10:20:37;;;;;;;2.58;1.40;;;14.40;99.90;;;;;;5111763;28;20023;-53
2022/10/22 10:23:31;;;;;;;1.85;1.75;;;14.40;99.90;;;;;;5111411;28;20026;-55
2022/10/22 10:26:05;;;;;;;2.90;2.38;;;14.40;99.90;;;;;;5111379;28;20035;-55
2022/10/22 10:28:56;;;;;;;4.78;2.13;;;14.50;99.90;;;;;;5111705;28;20366;-52
2022/10/22 10:31:33;;;;;;;4.75;2.00;;;14.40;99.90;;;;;;5110889;28;20024;-51
2022/10/22 10:34:24;;;;;;;2.67;1.90;;;14.40;99.90;;;;;;5111431;28;20018;-52
2022/10/22 10:37:02;;;;;;;1.98;1.77;;;14.40;99.90;;;;;;5065348;28;20426;-52
2022/10/22 10:39:59;;;;;;;3.38;2.05;;;14.30;99.90;;;;;;5111015;28;20443;-55
2022/10/22 10:42:51;;;;;;;3.97;2.33;;;14.30;99.90;;;;;;5110568;27;20114;-54
2022/10/22 10:45:48;;;;;;;4.07;2.28;;;14.40;99.90;;;;;;5110393;28;20370;-51
2022/10/22 10:48:30;;;;;;;5.40;2.90;;;14.50;99.90;;;;;;5103433;28;20028;-52
2022/10/22 10:51:01;;;;;;;3.72;2.70;;;14.50;99.90;;;;;;5110945;28;20024;-53
2022/10/22 10:53:38;;;;;;;8.48;3.75;;;14.50;99.90;;;;;;5111039;28;20099;-52
2022/10/22 10:56:28;;;;;;;4.90;2.90;;;14.40;99.90;;;;;;5112172;28;20057;-55
2022/10/22 10:59:24;;;;;;;4.55;3.55;;;14.40;99.90;;;;;;5112279;28;20027;-53
2022/10/22 11:02:17;;;;;;;3.35;2.75;;;14.40;99.90;;;;;;5009768;28;20033;-53
2022/10/22 11:05:01;;;;;;;3.17;2.42;;;14.30;99.90;;;;;;5063654;28;20060;-52
2022/10/22 11:07:32;;;;;;;;;;;14.40;99.90;;;;;;5062047;28;20032;-54
2022/10/22 11:10:26;;;;;;;3.20;2.40;;;14.50;99.90;;;;;;5065621;28;19920;-53
2022/10/22 11:13:02;;;;;;;3.28;2.78;;;14.50;99.90;;;;;;5020910;28;20055;-54
2022/10/22 11:15:38;;;;;;;2.72;2.30;;;14.30;99.90;;;;;;5063192;28;20065;-51
2022/10/22 11:18:32;;;;;;;3.28;2.90;;;14.50;99.90;;;;;;5064062;28;20028;-55
2022/10/22 11:21:07;;;;;;;4.30;2.92;;;14.40;99.90;;;;;;5062544;28;20357;-52
2022/10/22 11:23:38;;;;;;;5.25;3.10;;;14.30;99.90;;;;;;5060456;28;20506;-55
2022/10/22 11:26:10;;;;;;;3.40;3.10;;;14.30;99.90;;;;;;5060244;28;20493;-55
2022/10/22 11:28:49;;;;;;;3.97;3.38;;;14.30;99.90;;;;;;5074840;28;20090;-51
2022/10/22 11:31:17;;;;;;;6.32;3.10;;;14.20;99.90;;;;;;5060283;28;20056;-54
2022/10/22 11:33:59;;;;;;;4.63;2.75;;;14.30;99.90;;;;;;5059809;28;20036;-51
2022/10/22 11:36:27;;;;;;;7.63;3.97;;;14.40;99.90;;;;;;5060675;28;20028;-51
2022/10/22 11:38:53;;;;;;;6.38;4.03;;;14.40;99.90;;;;;;5059980;28;20075;-51
2022/10/22 11:41:26;;;;;;;13.93;5.25;;;14.30;99.90;;;;;;5060475;28;20040;-50
2022/10/22 11:43:54;;;;;;;13.18;5.90;;;14.30;99.90;;;;;;5060365;28;20684;-51
2022/10/22 11:46:20;;;;;;;17.40;7.53;;;14.30;99.90;;;;;;5062674;28;20454;-52
2022/10/22 11:49:12;;;;;;;6.63;3.00;;;14.30;99.90;;;;;;5061057;28;20468;-53
2022/10/22 11:51:41;;;;;;;5.82;3.13;;;14.40;99.90;;;;;;5061972;28;20051;-55
2022/10/22 11:54:28;;;;;;;7.18;2.40;;;14.60;99.90;;;;;;5061686;28;20037;-53
2022/10/22 11:57:23;;;;;;;23.88;10.70;;;14.70;99.90;;;;;;5066464;28;20492;-55
2022/10/22 12:00:47;;;;;;;46.72;24.65;;;14.70;99.90;;;;;;5069994;28;20062;-55
2022/10/22 12:03:18;;;;;;;5.80;4.07;;;14.80;99.90;;;;;;4975212;28;20061;-54
2022/10/22 12:05:45;;;;;;;33.17;19.25;;;14.90;99.90;;;;;;5060795;28;20263;-51
2022/10/22 12:08:21;;;;;;;13.85;8.57;;;14.90;99.90;;;;;;5074330;28;20124;-54
2022/10/22 12:11:13;;;;;;;11.57;5.55;;;15.10;99.90;;;;;;5063384;28;20021;-53
2022/10/22 12:14:18;;;;;;;5.38;2.60;;;15.10;99.90;;;;;;5070962;28;20117;-55
2022/10/22 12:16:45;;;;;;;10.70;6.40;;;15.30;99.90;;;;;;5083392;28;20040;-51
2022/10/22 12:19:14;;;;;;;11.52;7.93;;;15.30;99.90;;;;;;5084121;28;20043;-51
2022/10/22 12:21:42;;;;;;;134.48;120.03;;;15.30;99.90;;;;;;5074343;28;20078;-55
2022/10/22 12:24:19;;;;;;;16.25;11.15;;;15.40;99.90;;;;;;5064024;28;20431;-51
2022/10/22 12:26:48;;;;;;;2.80;2.50;;;15.20;99.90;;;;;;5073257;28;20039;-56
2022/10/22 12:29:15;;;;;;;34.50;17.85;;;15.20;99.90;;;;;;5063713;28;20119;-55
2022/10/22 12:31:43;;;;;;;8.93;4.88;;;15.20;99.90;;;;;;5065315;28;20088;-56
2022/10/22 12:34:14;;;;;;;9.68;6.50;;;15.40;99.90;;;;;;5063122;28;20024;-54
2022/10/22 12:36:40;;;;;;;19.35;12.77;;;15.20;99.90;;;;;;5063850;28;20384;-54
2022/10/22 12:39:17;;;;;;;14.45;10.13;;;15.10;99.90;;;;;;5063701;28;20028;-56
2022/10/22 12:41:43;;;;;;;7.50;5.00;;;15.20;99.90;;;;;;5063609;28;20130;-52
2022/10/22 12:44:14;;;;;;;4.32;1.77;;;15.30;99.90;;;;;;5063347;28;20029;-54
2022/10/22 12:46:42;;;;;;;3.83;2.75;;;15.50;99.90;;;;;;5063751;28;20372;-51
2022/10/22 12:49:18;;;;;;;5.13;3.38;;;15.70;99.90;;;;;;5078880;28;20438;-52
2022/10/22 12:51:45;;;;;;;4.95;2.47;;;15.60;99.90;;;;;;5067105;28;20025;-56
2022/10/22 12:54:29;;;;;;;2.65;1.50;;;15.60;99.90;;;;;;5066897;28;20059;-54